createdAt,value
2017-04-02T00:00:21.015Z,0
2017-04-02T00:01:01.537Z,0
2017-04-02T00:01:42.095Z,0
2017-04-02T00:02:22.564Z,0
2017-04-02T00:03:03.231Z,0
2017-04-02T00:03:43.696Z,0
2017-04-02T00:04:24.175Z,0
2017-04-02T00:05:04.678Z,0
2017-04-02T00:05:45.171Z,0
2017-04-02T00:06:25.636Z,0
2017-04-02T00:07:06.165Z,0
2017-04-02T00:07:46.665Z,0
2017-04-02T00:08:27.087Z,0
2017-04-02T00:09:07.591Z,0
2017-04-02T00:09:48.083Z,0
2017-04-02T00:10:28.524Z,0
2017-04-02T00:11:09.024Z,0
2017-04-02T00:11:49.520Z,0
2017-04-02T00:12:30.024Z,0
2017-04-02T00:13:10.520Z,0
2017-04-02T00:13:50.979Z,0
2017-04-02T00:14:31.482Z,0
2017-04-02T00:15:12.068Z,0
2017-04-02T00:15:52.538Z,0
2017-04-02T00:16:32.987Z,0
2017-04-02T00:17:13.527Z,0
2017-04-02T00:17:54.018Z,0
2017-04-02T00:18:34.443Z,0
2017-04-02T00:19:14.971Z,0
2017-04-02T00:19:55.434Z,0
2017-04-02T00:20:35.957Z,0
2017-04-02T00:21:16.434Z,0
2017-04-02T00:21:56.929Z,0
2017-04-02T00:22:37.413Z,0
2017-04-02T00:23:17.927Z,0
2017-04-02T00:23:58.411Z,0
2017-04-02T00:24:38.969Z,0
2017-04-02T00:25:19.449Z,0
2017-04-02T00:25:59.958Z,0
2017-04-02T00:26:40.432Z,0
2017-04-02T00:27:20.933Z,0
2017-04-02T00:28:01.420Z,0
2017-04-02T00:28:41.932Z,0
2017-04-02T00:29:22.407Z,0
2017-04-02T00:30:02.925Z,0
2017-04-02T00:30:43.426Z,0
2017-04-02T00:31:23.910Z,0
2017-04-02T00:32:04.376Z,0
2017-04-02T00:32:44.896Z,0
2017-04-02T00:33:25.404Z,0
2017-04-02T00:34:05.860Z,0
2017-04-02T00:34:46.356Z,0
2017-04-02T00:35:26.850Z,0
2017-04-02T00:36:07.346Z,0
2017-04-02T00:36:47.883Z,0
2017-04-02T00:37:28.345Z,0
2017-04-02T00:38:08.870Z,0
2017-04-02T00:38:49.350Z,0
2017-04-02T00:39:29.868Z,0
2017-04-02T00:40:10.349Z,0
2017-04-02T00:40:50.870Z,0
2017-04-02T00:41:31.325Z,0
2017-04-02T00:42:11.850Z,0
2017-04-02T00:42:52.339Z,0
2017-04-02T00:43:32.874Z,0
2017-04-02T00:44:13.346Z,0
2017-04-02T00:44:53.856Z,0
2017-04-02T00:45:34.397Z,0
2017-04-02T00:46:14.840Z,0
2017-04-02T00:46:55.308Z,0
2017-04-02T00:47:35.820Z,0
2017-04-02T00:48:16.328Z,0
2017-04-02T00:48:56.769Z,0
2017-04-02T00:49:37.281Z,0
2017-04-02T00:50:17.779Z,0
2017-04-02T00:50:58.324Z,0
2017-04-02T00:51:38.806Z,0
2017-04-02T00:52:19.433Z,0
2017-04-02T00:52:59.803Z,0
2017-04-02T00:53:40.343Z,0
2017-04-02T00:54:20.772Z,0
2017-04-02T00:55:01.297Z,0
2017-04-02T00:55:41.762Z,0
2017-04-02T00:56:22.420Z,0
2017-04-02T00:57:02.906Z,0
2017-04-02T00:57:43.450Z,0
2017-04-02T00:58:23.930Z,0
2017-04-02T00:59:04.470Z,0
2017-04-02T00:59:44.909Z,0
2017-04-02T01:00:25.430Z,0
2017-04-02T01:01:05.981Z,0
2017-04-02T01:01:46.431Z,0
2017-04-02T01:02:26.952Z,0
2017-04-02T01:03:07.420Z,0
2017-04-02T01:03:47.923Z,0
2017-04-02T01:04:28.438Z,0
2017-04-02T01:05:08.901Z,0
2017-04-02T01:05:49.385Z,0
2017-04-02T01:06:29.933Z,0
2017-04-02T01:07:10.396Z,0
2017-04-02T01:07:50.868Z,0
2017-04-02T01:08:31.382Z,0
2017-04-02T01:09:11.848Z,0
2017-04-02T01:09:52.343Z,0
2017-04-02T01:10:32.855Z,0
2017-04-02T01:11:13.336Z,0
2017-04-02T01:11:53.808Z,0
2017-04-02T01:12:34.299Z,0
2017-04-02T01:13:14.808Z,0
2017-04-02T01:13:55.323Z,0
2017-04-02T01:14:35.810Z,0
2017-04-02T01:15:16.289Z,0
2017-04-02T01:15:56.811Z,0
2017-04-02T01:16:37.291Z,0
2017-04-02T01:17:17.807Z,0
2017-04-02T01:17:58.289Z,0
2017-04-02T01:18:38.802Z,0
2017-04-02T01:19:19.297Z,0
2017-04-02T01:19:59.806Z,0
2017-04-02T01:20:40.273Z,0
2017-04-02T01:21:20.788Z,0
2017-04-02T01:22:01.223Z,0
2017-04-02T01:22:41.783Z,0
2017-04-02T01:23:22.208Z,0
2017-04-02T01:24:02.730Z,0
2017-04-02T01:24:43.237Z,0
2017-04-02T01:25:23.743Z,0
2017-04-02T01:26:04.237Z,0
2017-04-02T01:26:44.728Z,0
2017-04-02T01:27:25.231Z,0
2017-04-02T01:28:05.716Z,0
2017-04-02T01:28:46.239Z,0
2017-04-02T01:29:26.723Z,0
2017-04-02T01:30:07.239Z,0
2017-04-02T01:30:47.696Z,0
2017-04-02T01:31:28.250Z,0
2017-04-02T01:32:08.746Z,0
2017-04-02T01:32:49.197Z,0
2017-04-02T01:33:29.718Z,0
2017-04-02T01:34:10.225Z,0
2017-04-02T01:34:50.751Z,0
2017-04-02T01:35:31.185Z,0
2017-04-02T01:36:11.688Z,0
2017-04-02T01:36:52.175Z,0
2017-04-02T01:37:32.695Z,0
2017-04-02T01:38:13.171Z,0
2017-04-02T01:38:53.666Z,0
2017-04-02T01:39:34.150Z,0
2017-04-02T01:40:14.653Z,0
2017-04-02T01:40:55.079Z,0
2017-04-02T01:41:35.627Z,0
2017-04-02T01:42:16.093Z,0
2017-04-02T01:42:56.598Z,0
2017-04-02T01:43:37.057Z,0
2017-04-02T01:44:17.541Z,0
2017-04-02T01:44:58.018Z,0
2017-04-02T01:45:38.513Z,0
2017-04-02T01:46:19.011Z,0
2017-04-02T01:46:59.485Z,0
2017-04-02T01:47:39.988Z,0
2017-04-02T01:48:20.476Z,0
2017-04-02T01:49:00.976Z,0
2017-04-02T01:49:41.490Z,0
2017-04-02T01:50:21.965Z,0
2017-04-02T01:51:02.497Z,0
2017-04-02T01:51:42.983Z,0
2017-04-02T01:52:23.459Z,0
2017-04-02T01:53:03.986Z,0
2017-04-02T01:53:44.449Z,0
2017-04-02T01:54:24.935Z,0
2017-04-02T01:55:05.416Z,0
2017-04-02T01:55:45.910Z,0
2017-04-02T01:56:26.419Z,0
2017-04-02T01:57:06.893Z,0
2017-04-02T01:57:47.384Z,0
2017-04-02T01:58:27.895Z,0
2017-04-02T01:59:08.351Z,0
2017-04-02T01:59:48.890Z,0
2017-04-02T02:00:29.334Z,0
2017-04-02T02:01:09.865Z,0
2017-04-02T02:01:50.348Z,0
2017-04-02T02:02:30.905Z,0
2017-04-02T02:03:11.606Z,0
2017-04-02T02:03:52.039Z,0
2017-04-02T02:04:32.540Z,0
2017-04-02T02:05:13.074Z,0
2017-04-02T02:05:53.531Z,0
2017-04-02T02:06:34.025Z,0
2017-04-02T02:07:14.532Z,0
2017-04-02T02:07:55.002Z,0
2017-04-02T02:08:35.523Z,0
2017-04-02T02:09:16.019Z,0
2017-04-02T02:09:56.509Z,0
2017-04-02T02:10:37.022Z,0
2017-04-02T02:11:17.511Z,0
2017-04-02T02:11:57.993Z,0
2017-04-02T02:12:38.487Z,0
2017-04-02T02:13:18.986Z,0
2017-04-02T02:13:59.474Z,0
2017-04-02T02:14:40.010Z,0
2017-04-02T02:15:20.489Z,0
2017-04-02T02:16:00.956Z,0
2017-04-02T02:16:41.452Z,0
2017-04-02T02:17:21.949Z,0
2017-04-02T02:18:02.494Z,0
2017-04-02T02:18:42.915Z,0
2017-04-02T02:19:23.422Z,0
2017-04-02T02:20:03.914Z,0
2017-04-02T02:20:44.437Z,0
2017-04-02T02:21:24.927Z,0
2017-04-02T02:22:05.436Z,0
2017-04-02T02:22:45.922Z,0
2017-04-02T02:23:26.430Z,0
2017-04-02T02:24:06.910Z,0
2017-04-02T02:24:47.390Z,0
2017-04-02T02:25:27.910Z,0
2017-04-02T02:26:08.424Z,0
2017-04-02T02:26:48.906Z,0
2017-04-02T02:27:29.446Z,0
2017-04-02T02:28:09.904Z,0
2017-04-02T02:28:50.368Z,0
2017-04-02T02:29:30.896Z,0
2017-04-02T02:30:11.394Z,0
2017-04-02T02:30:51.886Z,0
2017-04-02T02:31:32.360Z,0
2017-04-02T02:32:12.885Z,0
2017-04-02T02:32:53.331Z,0
2017-04-02T02:33:33.872Z,0
2017-04-02T02:34:14.346Z,0
2017-04-02T02:34:54.863Z,0
2017-04-02T02:35:35.340Z,0
2017-04-02T02:36:15.877Z,0
2017-04-02T02:36:56.387Z,0
2017-04-02T02:37:36.835Z,0
2017-04-02T02:38:17.316Z,0
2017-04-02T02:38:57.817Z,0
2017-04-02T02:39:38.345Z,0
2017-04-02T02:40:18.814Z,0
2017-04-02T02:40:59.319Z,0
2017-04-02T02:41:39.789Z,0
2017-04-02T02:42:20.316Z,0
2017-04-02T02:43:00.810Z,0
2017-04-02T02:43:41.268Z,0
2017-04-02T02:44:21.729Z,0
2017-04-02T02:45:02.247Z,0
2017-04-02T02:45:43.321Z,0
2017-04-02T02:46:23.858Z,0
2017-04-02T02:47:04.319Z,0
2017-04-02T02:47:44.815Z,0
2017-04-02T02:48:25.322Z,0
2017-04-02T02:49:05.823Z,0
2017-04-02T02:49:46.279Z,0
2017-04-02T02:50:26.783Z,0
2017-04-02T02:51:07.267Z,0
2017-04-02T02:51:47.769Z,0
2017-04-02T02:52:28.269Z,0
2017-04-02T02:53:08.747Z,0
2017-04-02T02:53:49.258Z,0
2017-04-02T02:54:29.779Z,0
2017-04-02T02:55:10.272Z,0
2017-04-02T02:55:50.766Z,0
2017-04-02T02:56:31.256Z,0
2017-04-02T02:57:11.726Z,0
2017-04-02T02:57:52.227Z,0
2017-04-02T02:58:32.733Z,0
2017-04-02T02:59:13.224Z,0
2017-04-02T02:59:53.728Z,0
2017-04-02T03:00:34.231Z,0
2017-04-02T03:01:14.720Z,0
2017-04-02T03:01:55.218Z,0
2017-04-02T03:02:35.710Z,0
2017-04-02T03:03:16.178Z,0
2017-04-02T03:03:56.688Z,0
2017-04-02T03:04:37.199Z,0
2017-04-02T03:05:17.661Z,0
2017-04-02T03:05:58.154Z,0
2017-04-02T03:06:38.652Z,0
2017-04-02T03:07:19.151Z,0
2017-04-02T03:07:59.649Z,0
2017-04-02T03:08:40.148Z,0
2017-04-02T03:09:20.680Z,0
2017-04-02T03:10:01.157Z,0
2017-04-02T03:10:41.638Z,0
2017-04-02T03:11:22.131Z,0
2017-04-02T03:12:02.650Z,0
2017-04-02T03:12:43.158Z,0
2017-04-02T03:13:23.620Z,0
2017-04-02T03:14:04.088Z,0
2017-04-02T03:14:44.594Z,0
2017-04-02T03:15:25.086Z,0
2017-04-02T03:16:05.588Z,0
2017-04-02T03:16:46.074Z,0
2017-04-02T03:17:26.548Z,0
2017-04-02T03:18:07.050Z,0
2017-04-02T03:18:47.540Z,0
2017-04-02T03:19:28.078Z,0
2017-04-02T03:20:08.534Z,0
2017-04-02T03:20:49.064Z,0
2017-04-02T03:21:29.521Z,0
2017-04-02T03:22:10.049Z,0
2017-04-02T03:22:50.609Z,0
2017-04-02T03:23:31.107Z,0
2017-04-02T03:24:11.643Z,0
2017-04-02T03:24:52.167Z,0
2017-04-02T03:25:32.634Z,0
2017-04-02T03:26:13.146Z,0
2017-04-02T03:26:53.621Z,0
2017-04-02T03:27:34.162Z,0
2017-04-02T03:28:14.627Z,0
2017-04-02T03:28:55.086Z,0
2017-04-02T03:29:35.601Z,0
2017-04-02T03:30:16.054Z,0
2017-04-02T03:30:56.578Z,0
2017-04-02T03:31:37.053Z,0
2017-04-02T03:32:17.540Z,0
2017-04-02T03:32:58.009Z,0
2017-04-02T03:33:38.511Z,0
2017-04-02T03:34:19.021Z,0
2017-04-02T03:34:59.492Z,0
2017-04-02T03:35:39.986Z,0
2017-04-02T03:36:20.505Z,0
2017-04-02T03:37:00.982Z,0
2017-04-02T03:37:41.487Z,0
2017-04-02T03:38:22.032Z,0
2017-04-02T03:39:02.425Z,0
2017-04-02T03:39:42.956Z,0
2017-04-02T03:40:23.425Z,0
2017-04-02T03:41:03.947Z,0
2017-04-02T03:41:44.427Z,0
2017-04-02T03:42:24.899Z,0
2017-04-02T03:43:05.420Z,0
2017-04-02T03:43:45.867Z,0
2017-04-02T03:44:26.370Z,0
2017-04-02T03:45:06.869Z,0
2017-04-02T03:45:47.370Z,0
2017-04-02T03:46:27.869Z,0
2017-04-02T03:47:08.363Z,0
2017-04-02T03:47:48.848Z,0
2017-04-02T03:48:29.362Z,0
2017-04-02T03:49:09.881Z,0
2017-04-02T03:49:50.362Z,0
2017-04-02T03:50:30.863Z,0
2017-04-02T03:51:11.381Z,0
2017-04-02T03:51:51.891Z,0
2017-04-02T03:52:32.369Z,0
2017-04-02T03:53:12.865Z,0
2017-04-02T03:53:53.354Z,0
2017-04-02T03:54:33.879Z,0
2017-04-02T03:55:14.389Z,0
2017-04-02T03:55:54.843Z,0
2017-04-02T03:56:35.402Z,0
2017-04-02T03:57:15.862Z,0
2017-04-02T03:57:56.361Z,0
2017-04-02T03:58:36.846Z,0
2017-04-02T03:59:17.367Z,0
2017-04-02T03:59:57.829Z,0
2017-04-02T04:00:38.328Z,0
2017-04-02T04:01:18.826Z,0
2017-04-02T04:01:59.335Z,0
2017-04-02T04:02:39.814Z,0
2017-04-02T04:03:20.279Z,0
2017-04-02T04:04:00.804Z,0
2017-04-02T04:04:41.275Z,0
2017-04-02T04:05:21.791Z,0
2017-04-02T04:06:02.287Z,0
2017-04-02T04:06:42.790Z,0
2017-04-02T04:07:23.284Z,0
2017-04-02T04:08:03.748Z,0
2017-04-02T04:08:44.223Z,0
2017-04-02T04:09:24.729Z,0
2017-04-02T04:10:05.259Z,0
2017-04-02T04:10:45.754Z,0
2017-04-02T04:11:26.222Z,0
2017-04-02T04:12:06.749Z,0
2017-04-02T04:12:47.206Z,0
2017-04-02T04:13:27.690Z,0
2017-04-02T04:14:08.202Z,0
2017-04-02T04:14:48.691Z,0
2017-04-02T04:15:29.159Z,0
2017-04-02T04:16:09.728Z,0
2017-04-02T04:16:50.217Z,0
2017-04-02T04:17:30.716Z,0
2017-04-02T04:18:11.210Z,0
2017-04-02T04:18:51.685Z,0
2017-04-02T04:19:32.182Z,0
2017-04-02T04:20:12.711Z,0
2017-04-02T04:20:53.159Z,0
2017-04-02T04:21:33.643Z,0
2017-04-02T04:22:14.150Z,0
2017-04-02T04:22:54.634Z,0
2017-04-02T04:23:35.143Z,0
2017-04-02T04:24:15.600Z,0
2017-04-02T04:24:56.100Z,0
2017-04-02T04:25:36.578Z,0
2017-04-02T04:26:17.080Z,0
2017-04-02T04:26:57.618Z,0
2017-04-02T04:27:38.108Z,0
2017-04-02T04:28:18.586Z,0
2017-04-02T04:28:59.082Z,0
2017-04-02T04:29:39.588Z,0
2017-04-02T04:30:20.090Z,0
2017-04-02T04:31:00.595Z,0
2017-04-02T04:31:41.101Z,0
2017-04-02T04:32:21.528Z,0
2017-04-02T04:33:02.026Z,0
2017-04-02T04:33:42.536Z,0
2017-04-02T04:34:23.033Z,0
2017-04-02T04:35:03.564Z,0
2017-04-02T04:35:44.115Z,0
2017-04-02T04:36:24.552Z,0
2017-04-02T04:37:05.080Z,0
2017-04-02T04:37:45.580Z,0
2017-04-02T04:38:26.085Z,0
2017-04-02T04:39:06.564Z,0
2017-04-02T04:39:47.075Z,0
2017-04-02T04:40:27.586Z,0
2017-04-02T04:41:08.067Z,0
2017-04-02T04:41:48.537Z,0
2017-04-02T04:42:29.032Z,0
2017-04-02T04:43:09.553Z,0
2017-04-02T04:43:50.049Z,0
2017-04-02T04:44:30.522Z,0
2017-04-02T04:45:11.088Z,0
2017-04-02T04:45:51.528Z,0
2017-04-02T04:46:32.006Z,0
2017-04-02T04:47:12.501Z,0
2017-04-02T04:47:53.009Z,0
2017-04-02T04:48:33.528Z,0
2017-04-02T04:49:13.965Z,0
2017-04-02T04:49:54.484Z,0
2017-04-02T04:50:34.973Z,0
2017-04-02T04:51:15.569Z,0
2017-04-02T04:51:56.026Z,0
2017-04-02T04:52:36.553Z,0
2017-04-02T04:53:17.015Z,0
2017-04-02T04:53:57.510Z,0
2017-04-02T04:54:38.015Z,0
2017-04-02T04:55:18.495Z,0
2017-04-02T04:55:59.013Z,0
2017-04-02T04:56:39.483Z,0
2017-04-02T04:57:19.967Z,0
2017-04-02T04:58:00.491Z,0
2017-04-02T04:58:40.970Z,0
2017-04-02T04:59:21.463Z,0
2017-04-02T05:00:01.956Z,0
2017-04-02T05:00:42.492Z,0
2017-04-02T05:01:22.944Z,0
2017-04-02T05:02:03.455Z,0
2017-04-02T05:02:43.959Z,0
2017-04-02T05:03:24.445Z,0
2017-04-02T05:04:04.896Z,0
2017-04-02T05:04:45.413Z,0
2017-04-02T05:05:25.907Z,0
2017-04-02T05:06:06.441Z,0
2017-04-02T05:06:46.933Z,0
2017-04-02T05:07:27.476Z,0
2017-04-02T05:08:07.971Z,0
2017-04-02T05:08:48.440Z,0
2017-04-02T05:09:28.939Z,0
2017-04-02T05:10:09.414Z,0
2017-04-02T05:10:49.910Z,0
2017-04-02T05:11:30.372Z,0
2017-04-02T05:12:10.889Z,0
2017-04-02T05:12:51.378Z,0
2017-04-02T05:13:31.885Z,0
2017-04-02T05:14:12.346Z,0
2017-04-02T05:14:52.904Z,0
2017-04-02T05:15:33.395Z,0
2017-04-02T05:16:13.873Z,0
2017-04-02T05:16:54.410Z,0
2017-04-02T05:17:34.880Z,0
2017-04-02T05:18:15.403Z,0
2017-04-02T05:18:55.861Z,0
2017-04-02T05:19:36.389Z,0
2017-04-02T05:20:16.843Z,0
2017-04-02T05:20:57.365Z,0
2017-04-02T05:21:37.828Z,0
2017-04-02T05:22:18.368Z,0
2017-04-02T05:22:58.843Z,0
2017-04-02T05:23:39.309Z,0
2017-04-02T05:24:19.832Z,0
2017-04-02T05:25:00.316Z,0
2017-04-02T05:25:40.810Z,0
2017-04-02T05:26:21.311Z,0
2017-04-02T05:27:01.825Z,0
2017-04-02T05:27:42.343Z,0
2017-04-02T05:28:22.838Z,0
2017-04-02T05:29:03.333Z,0
2017-04-02T05:29:43.797Z,0
2017-04-02T05:30:24.274Z,0
2017-04-02T05:31:04.790Z,0
2017-04-02T05:31:45.283Z,0
2017-04-02T05:32:25.768Z,0
2017-04-02T05:33:06.271Z,0
2017-04-02T05:33:46.781Z,0
2017-04-02T05:34:27.259Z,0
2017-04-02T05:35:07.769Z,0
2017-04-02T05:35:48.259Z,0
2017-04-02T05:36:28.770Z,0
2017-04-02T05:37:09.290Z,0
2017-04-02T05:37:49.794Z,0
2017-04-02T05:38:30.258Z,0
2017-04-02T05:39:10.689Z,0
2017-04-02T05:39:51.194Z,0
2017-04-02T05:40:31.683Z,0
2017-04-02T05:41:12.184Z,0
2017-04-02T05:41:52.660Z,0
2017-04-02T05:42:33.184Z,0
2017-04-02T05:43:13.680Z,0
2017-04-02T05:43:54.165Z,0
2017-04-02T05:44:34.664Z,0
2017-04-02T05:45:15.183Z,0
2017-04-02T05:45:55.664Z,0
2017-04-02T05:46:36.156Z,0
2017-04-02T05:47:16.688Z,0
2017-04-02T05:47:57.181Z,0
2017-04-02T05:48:37.730Z,0
2017-04-02T05:49:18.234Z,0
2017-04-02T05:49:58.691Z,0
2017-04-02T05:50:39.169Z,0
2017-04-02T05:51:19.736Z,0
2017-04-02T05:52:00.180Z,0
2017-04-02T05:52:40.734Z,0
2017-04-02T05:53:21.284Z,0
2017-04-02T05:54:01.852Z,0
2017-04-02T05:54:42.337Z,0
2017-04-02T05:55:22.818Z,0
2017-04-02T05:56:03.320Z,0
2017-04-02T05:56:43.866Z,0
2017-04-02T05:57:24.329Z,0
2017-04-02T05:58:04.833Z,0
2017-04-02T05:58:45.302Z,0
2017-04-02T05:59:25.794Z,0
2017-04-02T06:00:06.415Z,0
2017-04-02T06:00:46.948Z,0
2017-04-02T06:01:27.422Z,0
2017-04-02T06:02:08.020Z,0
2017-04-02T06:02:48.490Z,0
2017-04-02T06:03:28.962Z,0
2017-04-02T06:04:09.470Z,0
2017-04-02T06:04:49.946Z,0
2017-04-02T06:05:30.460Z,0
2017-04-02T06:06:10.931Z,5
2017-04-02T06:06:51.419Z,5
2017-04-02T06:07:31.937Z,5
2017-04-02T06:08:12.429Z,5
2017-04-02T06:08:52.878Z,5
2017-04-02T06:09:33.389Z,5
2017-04-02T06:10:13.881Z,5
2017-04-02T06:10:54.378Z,5
2017-04-02T06:11:34.905Z,5
2017-04-02T06:12:15.401Z,5
2017-04-02T06:12:55.898Z,5
2017-04-02T06:13:36.406Z,5
2017-04-02T06:14:16.937Z,5
2017-04-02T06:14:57.420Z,5
2017-04-02T06:15:37.891Z,5
2017-04-02T06:16:18.407Z,5
2017-04-02T06:16:58.891Z,5
2017-04-02T06:17:39.385Z,5
2017-04-02T06:18:19.916Z,5
2017-04-02T06:19:00.438Z,5
2017-04-02T06:19:40.963Z,5
2017-04-02T06:20:21.427Z,5
2017-04-02T06:21:02.432Z,5
2017-04-02T06:21:42.418Z,5
2017-04-02T06:22:22.918Z,5
2017-04-02T06:23:03.396Z,5
2017-04-02T06:23:43.920Z,5
2017-04-02T06:24:24.394Z,5
2017-04-02T06:25:04.901Z,5
2017-04-02T06:25:45.366Z,5
2017-04-02T06:26:25.895Z,5
2017-04-02T06:27:06.388Z,5
2017-04-02T06:27:46.863Z,5
2017-04-02T06:28:27.371Z,5
2017-04-02T06:29:07.867Z,5
2017-04-02T06:29:48.389Z,5
2017-04-02T06:30:28.871Z,5
2017-04-02T06:31:09.384Z,10
2017-04-02T06:31:49.842Z,10
2017-04-02T06:32:30.325Z,10
2017-04-02T06:33:10.838Z,10
2017-04-02T06:33:51.356Z,10
2017-04-02T06:34:31.837Z,10
2017-04-02T06:35:12.302Z,10
2017-04-02T06:35:52.802Z,5
2017-04-02T06:36:33.304Z,5
2017-04-02T06:37:13.792Z,5
2017-04-02T06:37:54.305Z,5
2017-04-02T06:38:34.803Z,5
2017-04-02T06:39:15.269Z,5
2017-04-02T06:39:55.769Z,5
2017-04-02T06:40:36.306Z,5
2017-04-02T06:41:16.765Z,10
2017-04-02T06:41:57.287Z,10
2017-04-02T06:42:37.769Z,10
2017-04-02T06:43:18.255Z,10
2017-04-02T06:43:58.753Z,10
2017-04-02T06:44:39.284Z,10
2017-04-02T06:45:19.751Z,10
2017-04-02T06:46:00.252Z,10
2017-04-02T06:46:40.692Z,10
2017-04-02T06:47:21.190Z,10
2017-04-02T06:48:01.713Z,10
2017-04-02T06:48:42.210Z,10
2017-04-02T06:49:22.669Z,10
2017-04-02T06:50:03.179Z,10
2017-04-02T06:50:43.636Z,10
2017-04-02T06:51:24.180Z,15
2017-04-02T06:52:04.656Z,15
2017-04-02T06:52:45.142Z,15
2017-04-02T06:53:25.662Z,15
2017-04-02T06:54:06.116Z,15
2017-04-02T06:54:46.612Z,15
2017-04-02T06:55:27.092Z,15
2017-04-02T06:56:07.620Z,15
2017-04-02T06:56:48.111Z,15
2017-04-02T06:57:28.606Z,15
2017-04-02T06:58:09.088Z,15
2017-04-02T06:58:49.674Z,15
2017-04-02T06:59:30.088Z,15
2017-04-02T07:00:10.598Z,15
2017-04-02T07:00:51.074Z,15
2017-04-02T07:01:31.561Z,15
2017-04-02T07:02:12.034Z,20
2017-04-02T07:02:52.529Z,20
2017-04-02T07:03:33.041Z,20
2017-04-02T07:04:13.502Z,20
2017-04-02T07:04:53.991Z,20
2017-04-02T07:05:34.512Z,25
2017-04-02T07:06:15.015Z,25
2017-04-02T07:06:55.548Z,25
2017-04-02T07:07:36.046Z,30
2017-04-02T07:08:16.570Z,30
2017-04-02T07:08:57.030Z,30
2017-04-02T07:09:37.747Z,30
2017-04-02T07:10:18.175Z,35
2017-04-02T07:10:58.699Z,35
2017-04-02T07:11:39.129Z,35
2017-04-02T07:12:20.455Z,40
2017-04-02T07:13:00.494Z,40
2017-04-02T07:13:40.962Z,45
2017-04-02T07:14:21.538Z,45
2017-04-02T07:15:01.992Z,50
2017-04-02T07:15:42.471Z,50
2017-04-02T07:16:22.946Z,50
2017-04-02T07:17:03.464Z,50
2017-04-02T07:17:43.965Z,55
2017-04-02T07:18:24.440Z,55
2017-04-02T07:19:04.980Z,60
2017-04-02T07:19:45.479Z,65
2017-04-02T07:20:25.941Z,65
2017-04-02T07:21:06.488Z,70
2017-04-02T07:21:46.924Z,70
2017-04-02T07:22:27.429Z,75
2017-04-02T07:23:07.957Z,80
2017-04-02T07:23:48.464Z,85
2017-04-02T07:24:28.967Z,85
2017-04-02T07:25:09.460Z,90
2017-04-02T07:25:49.962Z,95
2017-04-02T07:26:30.459Z,100
2017-04-02T07:27:10.940Z,100
2017-04-02T07:27:51.490Z,105
2017-04-02T07:28:32.104Z,105
2017-04-02T07:29:12.608Z,105
2017-04-02T07:29:53.115Z,105
2017-04-02T07:30:33.634Z,100
2017-04-02T07:31:14.136Z,100
2017-04-02T07:31:54.626Z,105
2017-04-02T07:32:35.222Z,110
2017-04-02T07:33:16.285Z,115
2017-04-02T07:33:56.631Z,125
2017-04-02T07:34:37.111Z,135
2017-04-02T07:35:17.638Z,140
2017-04-02T07:35:58.324Z,140
2017-04-02T07:36:38.798Z,140
2017-04-02T07:37:19.306Z,140
2017-04-02T07:37:59.767Z,145
2017-04-02T07:38:40.275Z,150
2017-04-02T07:39:20.851Z,150
2017-04-02T07:40:01.423Z,155
2017-04-02T07:40:41.849Z,155
2017-04-02T07:41:22.386Z,155
2017-04-02T07:42:02.850Z,160
2017-04-02T07:42:43.379Z,160
2017-04-02T07:43:23.880Z,155
2017-04-02T07:44:04.392Z,150
2017-04-02T07:44:44.919Z,150
2017-04-02T07:45:25.381Z,150
2017-04-02T07:46:05.886Z,150
2017-04-02T07:46:46.371Z,150
2017-04-02T07:47:26.870Z,150
2017-04-02T07:48:07.508Z,150
2017-04-02T07:48:47.964Z,155
2017-04-02T07:49:28.498Z,160
2017-04-02T07:50:08.984Z,165
2017-04-02T07:50:49.538Z,175
2017-04-02T07:51:30.033Z,180
2017-04-02T07:52:10.526Z,190
2017-04-02T07:52:50.994Z,195
2017-04-02T07:53:31.585Z,200
2017-04-02T07:54:12.061Z,205
2017-04-02T07:54:52.554Z,210
2017-04-02T07:55:33.067Z,200
2017-04-02T07:56:13.555Z,195
2017-04-02T07:56:54.055Z,195
2017-04-02T07:57:34.556Z,205
2017-04-02T07:58:15.018Z,220
2017-04-02T07:58:55.509Z,225
2017-04-02T07:59:35.986Z,230
2017-04-02T08:00:16.461Z,230
2017-04-02T08:00:56.951Z,230
2017-04-02T08:01:37.473Z,225
2017-04-02T08:02:17.981Z,215
2017-04-02T08:02:58.474Z,210
2017-04-02T08:03:38.994Z,200
2017-04-02T08:04:19.463Z,195
2017-04-02T08:05:00.096Z,190
2017-04-02T08:05:40.568Z,185
2017-04-02T08:06:21.167Z,185
2017-04-02T08:07:01.692Z,180
2017-04-02T08:07:42.195Z,180
2017-04-02T08:08:22.690Z,175
2017-04-02T08:09:03.216Z,175
2017-04-02T08:09:43.715Z,170
2017-04-02T08:10:24.205Z,165
2017-04-02T08:11:04.685Z,160
2017-04-02T08:11:45.180Z,155
2017-04-02T08:12:25.675Z,155
2017-04-02T08:13:06.192Z,155
2017-04-02T08:13:46.682Z,155
2017-04-02T08:14:27.209Z,155
2017-04-02T08:15:07.871Z,155
2017-04-02T08:15:48.407Z,155
2017-04-02T08:16:28.894Z,155
2017-04-02T08:17:09.396Z,150
2017-04-02T08:17:49.911Z,150
2017-04-02T08:18:30.421Z,145
2017-04-02T08:19:10.923Z,145
2017-04-02T08:19:51.405Z,135
2017-04-02T08:20:31.907Z,130
2017-04-02T08:21:12.400Z,125
2017-04-02T08:21:52.867Z,120
2017-04-02T08:22:33.395Z,115
2017-04-02T08:23:13.861Z,115
2017-04-02T08:23:54.390Z,115
2017-04-02T08:24:34.885Z,110
2017-04-02T08:25:15.394Z,105
2017-04-02T08:25:55.873Z,105
2017-04-02T08:26:36.386Z,110
2017-04-02T08:27:16.922Z,110
2017-04-02T08:27:57.396Z,110
2017-04-02T08:28:37.898Z,110
2017-04-02T08:29:18.374Z,110
2017-04-02T08:29:58.874Z,115
2017-04-02T08:30:39.360Z,120
2017-04-02T08:31:19.884Z,120
2017-04-02T08:32:00.420Z,125
2017-04-02T08:32:40.880Z,125
2017-04-02T08:33:21.372Z,120
2017-04-02T08:34:01.964Z,120
2017-04-02T08:34:42.520Z,120
2017-04-02T08:35:22.909Z,115
2017-04-02T08:36:03.411Z,120
2017-04-02T08:36:43.933Z,130
2017-04-02T08:37:24.408Z,140
2017-04-02T08:38:04.958Z,155
2017-04-02T08:38:45.434Z,160
2017-04-02T08:39:25.921Z,165
2017-04-02T08:40:06.504Z,165
2017-04-02T08:40:46.979Z,160
2017-04-02T08:41:27.471Z,160
2017-04-02T08:42:07.895Z,165
2017-04-02T08:42:48.434Z,160
2017-04-02T08:43:28.892Z,160
2017-04-02T08:44:09.391Z,155
2017-04-02T08:44:49.923Z,155
2017-04-02T08:45:30.483Z,155
2017-04-02T08:46:10.936Z,165
2017-04-02T08:46:51.461Z,165
2017-04-02T08:47:31.955Z,160
2017-04-02T08:48:12.421Z,160
2017-04-02T08:48:52.932Z,160
2017-04-02T08:49:33.393Z,170
2017-04-02T08:50:13.918Z,180
2017-04-02T08:50:54.479Z,185
2017-04-02T08:51:34.975Z,195
2017-04-02T08:52:15.513Z,190
2017-04-02T08:52:55.916Z,185
2017-04-02T08:53:36.433Z,175
2017-04-02T08:54:16.884Z,175
2017-04-02T08:54:57.398Z,175
2017-04-02T08:55:37.895Z,175
2017-04-02T08:56:18.394Z,170
2017-04-02T08:56:58.893Z,165
2017-04-02T08:57:39.410Z,160
2017-04-02T08:58:19.914Z,155
2017-04-02T08:59:00.389Z,150
2017-04-02T08:59:40.873Z,150
2017-04-02T09:00:21.353Z,160
2017-04-02T09:01:01.846Z,170
2017-04-02T09:01:42.361Z,180
2017-04-02T09:02:22.890Z,180
2017-04-02T09:03:03.389Z,175
2017-04-02T09:03:43.869Z,170
2017-04-02T09:05:57.991Z,140
2017-04-02T09:06:38.519Z,130
2017-04-02T09:07:18.973Z,125
2017-04-02T09:07:59.547Z,120
2017-04-02T09:08:40.066Z,110
2017-04-02T09:09:20.614Z,105
2017-04-02T09:10:01.365Z,100
2017-04-02T09:10:42.063Z,100
2017-04-02T09:11:22.630Z,100
2017-04-02T09:12:03.131Z,95
2017-04-02T09:12:43.693Z,95
2017-04-02T09:13:24.216Z,95
2017-04-02T09:14:04.672Z,95
2017-04-02T09:14:45.217Z,100
2017-04-02T09:15:25.666Z,100
2017-04-02T09:16:06.162Z,95
2017-04-02T09:16:46.672Z,90
2017-04-02T09:17:27.172Z,80
2017-04-02T09:18:07.684Z,75
2017-04-02T09:18:48.117Z,65
2017-04-02T09:19:28.621Z,65
2017-04-02T09:20:09.106Z,60
2017-04-02T09:20:49.603Z,60
2017-04-02T09:21:30.073Z,60
2017-04-02T09:22:10.583Z,55
2017-04-02T09:22:51.073Z,55
2017-04-02T09:23:31.616Z,55
2017-04-02T09:24:12.042Z,60
2017-04-02T09:24:52.526Z,65
2017-04-02T09:25:32.999Z,65
2017-04-02T09:26:13.495Z,70
2017-04-02T09:26:53.969Z,70
2017-04-02T09:27:34.477Z,75
2017-04-02T09:28:14.999Z,75
2017-04-02T09:28:55.499Z,75
2017-04-02T09:29:36.021Z,75
2017-04-02T09:30:16.490Z,75
2017-04-02T09:30:56.949Z,75
2017-04-02T09:31:37.449Z,80
2017-04-02T09:32:17.918Z,80
2017-04-02T09:32:58.389Z,80
2017-04-02T09:33:38.936Z,80
2017-04-02T09:34:19.373Z,80
2017-04-02T09:34:59.921Z,80
2017-04-02T09:35:40.368Z,80
2017-04-02T09:36:20.912Z,75
2017-04-02T09:37:01.358Z,75
2017-04-02T09:37:41.859Z,70
2017-04-02T09:38:22.377Z,70
2017-04-02T09:39:02.843Z,70
2017-04-02T09:39:43.398Z,70
2017-04-02T09:40:23.885Z,70
2017-04-02T09:41:04.385Z,75
2017-04-02T09:41:44.852Z,75
2017-04-02T09:42:25.372Z,65
2017-04-02T09:43:05.937Z,55
2017-04-02T09:43:46.438Z,55
2017-04-02T09:44:26.918Z,50
2017-04-02T09:45:07.416Z,50
2017-04-02T09:45:47.917Z,50
2017-04-02T09:46:28.441Z,55
2017-04-02T09:47:08.881Z,55
2017-04-02T09:47:49.391Z,65
2017-04-02T09:48:29.926Z,75
2017-04-02T09:49:10.370Z,85